ポンタ・デルガダ の空港の天気 - METARとTAF

ポンタ・デルガダ空港 ( LPPD / PDL ) - ポルトガル ポンタ・デルガダ (サンミゲル島)
飛行場実況気象(Metar)
観測時間08/17 03:00 AZOST (08/17 03:00 UTC)
風向・風速西 4m/s
視程10km以上
天気現象
少しの雲 雲底高度 490m
気温22℃
湿度83%
気圧1023hPa
METARLPPD 170300Z 26007KT 9999 FEW016 22/19 Q1023
過去の天気等 Google飛行場航空写真 Wunderground天気予報

過去48時間のMETAR

飛行場予報(TAF)
発表時間: 8/16 23:00 AZOST (8/16 23:00 UTC)
予報対象時間: 17日0時 AZOST ~ 18日0時 AZOST
風向・風速西南西 4m/s
視程10km以上
全天の4割程度の雲 雲底高度 550m
17日14時 AZOST ~ 17日16時 AZOST に徐々に
全天の4割程度の雲 雲底高度 370m
全天の8割程度の雲 雲底高度 760m
17日21時 AZOST ~ 17日24時 AZOST に一時的に
視程4,000m
天気現象霧雨 もや
全天の4割程度の雲 雲底高度 120m
全天の8割程度の雲 雲底高度 240m
TAF LPPD 162300Z 1700/1724 24007KT 9999 SCT018
BECMG 1714/1716 SCT012 BKN025
TEMPO 1721/1724 4000 DZ BR SCT004 BKN008